createdAt,value
2022-09-14T00:01:08.304Z,100.00
2022-09-14T00:02:10.930Z,100.00
2022-09-14T00:03:12.753Z,100.00
2022-09-14T00:04:18.235Z,100.00
2022-09-14T00:05:20.010Z,100.00
2022-09-14T00:06:22.745Z,100.00
2022-09-14T00:07:24.463Z,100.00
2022-09-14T00:08:26.177Z,100.00
2022-09-14T00:09:28.028Z,100.00
2022-09-14T00:10:32.653Z,100.00
2022-09-14T00:14:08.167Z,100.00
2022-09-14T00:18:09.664Z,100.00
2022-09-14T00:19:29.675Z,100.00
2022-09-14T00:20:31.960Z,100.00
2022-09-14T00:21:36.076Z,100.00
2022-09-14T00:22:37.829Z,100.00
2022-09-14T00:23:42.216Z,100.00
2022-09-14T00:24:43.883Z,100.00
2022-09-14T00:25:45.601Z,100.00
2022-09-14T00:26:47.391Z,100.00
2022-09-14T00:27:49.189Z,100.00
2022-09-14T00:28:54.395Z,100.00
2022-09-14T00:29:56.060Z,100.00
2022-09-14T00:30:57.733Z,100.00
2022-09-14T00:31:59.933Z,100.00
2022-09-14T00:33:01.630Z,100.00
2022-09-14T00:34:05.194Z,100.00
2022-09-14T00:35:07.134Z,100.00
2022-09-14T00:36:11.854Z,100.00
2022-09-14T00:37:13.462Z,100.00
2022-09-14T00:38:15.039Z,100.00
2022-09-14T00:39:18.509Z,100.00
2022-09-14T00:40:20.372Z,100.00
2022-09-14T00:41:29.496Z,100.00
2022-09-14T00:42:31.469Z,100.00
2022-09-14T00:43:50.829Z,100.00
2022-09-14T00:44:52.763Z,100.00
2022-09-14T00:45:54.865Z,100.00
2022-09-14T00:47:01.494Z,100.00
2022-09-14T00:48:03.269Z,100.00
2022-09-14T00:49:13.192Z,100.00
2022-09-14T00:50:15.720Z,100.00
2022-09-14T00:51:20.953Z,100.00
2022-09-14T00:52:28.536Z,100.00
2022-09-14T00:53:30.862Z,100.00
2022-09-14T00:54:33.029Z,100.00
2022-09-14T00:55:34.765Z,100.00
2022-09-14T00:56:36.675Z,100.00
2022-09-14T00:57:44.572Z,100.00
2022-09-14T00:58:51.518Z,100.00
2022-09-14T00:59:55.617Z,100.00
2022-09-14T01:00:58.694Z,100.00
2022-09-14T01:02:01.062Z,100.00
2022-09-14T01:03:02.977Z,100.00
2022-09-14T01:04:04.763Z,100.00
2022-09-14T01:05:07.951Z,100.00
2022-09-14T01:06:09.990Z,100.00
2022-09-14T01:07:38.478Z,100.00
2022-09-14T01:09:00.766Z,100.00
2022-09-14T01:10:37.392Z,100.00
2022-09-14T01:11:56.673Z,100.00
2022-09-14T01:13:41.921Z,100.00
2022-09-14T01:14:56.879Z,100.00
2022-09-14T01:16:25.391Z,100.00
2022-09-14T01:17:55.577Z,100.00
2022-09-14T01:19:01.853Z,100.00
2022-09-14T01:20:19.826Z,100.00
2022-09-14T01:21:29.641Z,100.00
2022-09-14T01:23:01.139Z,100.00
2022-09-14T01:24:39.674Z,100.00
2022-09-14T01:25:59.901Z,100.00
2022-09-14T01:27:01.563Z,100.00
2022-09-14T01:28:16.594Z,100.00
2022-09-14T01:29:21.215Z,100.00
2022-09-14T01:30:24.581Z,100.00
2022-09-14T01:31:43.563Z,100.00
2022-09-14T01:32:53.528Z,100.00
2022-09-14T01:34:16.199Z,100.00
2022-09-14T01:35:33.675Z,100.00
2022-09-14T01:36:39.891Z,100.00
2022-09-14T01:37:49.791Z,100.00
2022-09-14T01:38:55.548Z,100.00
2022-09-14T01:40:07.515Z,100.00
2022-09-14T01:41:17.304Z,100.00
2022-09-14T01:42:25.330Z,100.00
2022-09-14T01:43:37.696Z,100.00
2022-09-14T01:44:46.554Z,100.00
2022-09-14T01:45:57.755Z,100.00
2022-09-14T01:47:20.470Z,100.00
2022-09-14T01:48:34.220Z,100.00
2022-09-14T01:49:59.544Z,100.00
2022-09-14T01:51:12.653Z,100.00
2022-09-14T01:52:22.464Z,100.00
2022-09-14T01:53:42.070Z,100.00
2022-09-14T01:54:56.988Z,100.00
2022-09-14T01:56:10.992Z,100.00
2022-09-14T01:57:21.511Z,100.00
2022-09-14T01:58:34.630Z,100.00
2022-09-14T01:59:45.725Z,100.00
2022-09-14T02:00:50.767Z,100.00
2022-09-14T02:02:02.975Z,100.00
2022-09-14T02:03:14.481Z,100.00
2022-09-14T02:04:29.392Z,100.00
2022-09-14T02:05:35.934Z,100.00
2022-09-14T02:06:43.611Z,100.00
2022-09-14T02:07:45.507Z,100.00
2022-09-14T02:08:48.175Z,100.00
2022-09-14T02:09:54.408Z,100.00
2022-09-14T02:10:57.988Z,100.00
2022-09-14T02:12:00.947Z,100.00
2022-09-14T02:13:03.369Z,100.00
2022-09-14T02:14:06.032Z,100.00
2022-09-14T02:15:11.856Z,100.00
2022-09-14T02:16:14.197Z,100.00
2022-09-14T02:17:16.253Z,100.00
2022-09-14T02:18:19.513Z,100.00
2022-09-14T02:19:23.986Z,100.00
2022-09-14T02:20:39.966Z,100.00
2022-09-14T02:21:42.223Z,100.00
2022-09-14T02:22:44.128Z,100.00
2022-09-14T02:23:48.022Z,100.00
2022-09-14T02:24:50.944Z,100.00
2022-09-14T02:25:53.014Z,100.00
2022-09-14T02:26:58.870Z,100.00
2022-09-14T02:28:00.617Z,100.00
2022-09-14T02:29:02.888Z,100.00
2022-09-14T02:30:05.303Z,100.00
2022-09-14T02:31:41.900Z,100.00
2022-09-14T02:33:03.909Z,100.00
2022-09-14T02:34:19.158Z,100.00
2022-09-14T02:35:32.585Z,100.00
2022-09-14T02:37:14.009Z,100.00
2022-09-14T02:38:28.207Z,100.00
2022-09-14T02:39:57.334Z,100.00
2022-09-14T02:41:05.226Z,100.00
2022-09-14T02:42:15.898Z,100.00
2022-09-14T02:43:46.626Z,100.00
2022-09-14T02:44:59.646Z,100.00
2022-09-14T02:46:03.885Z,100.00
2022-09-14T02:47:26.850Z,100.00
2022-09-14T02:48:41.997Z,100.00
2022-09-14T02:50:11.858Z,100.00
2022-09-14T02:51:27.320Z,100.00
2022-09-14T02:52:40.689Z,100.00
2022-09-14T02:53:53.886Z,100.00
2022-09-14T02:55:04.828Z,100.00
2022-09-14T02:56:10.044Z,100.00
2022-09-14T02:57:11.988Z,100.00
2022-09-14T02:58:14.953Z,100.00
2022-09-14T02:59:17.122Z,100.00
2022-09-14T03:00:18.896Z,100.00
2022-09-14T03:01:23.020Z,100.00
2022-09-14T03:02:24.907Z,100.00
2022-09-14T03:03:26.637Z,100.00
2022-09-14T03:04:28.721Z,100.00
2022-09-14T03:05:30.420Z,100.00
2022-09-14T03:06:32.638Z,100.00
2022-09-14T03:07:34.281Z,100.00
2022-09-14T03:08:36.403Z,100.00
2022-09-14T03:09:38.198Z,100.00
2022-09-14T03:10:43.920Z,100.00
2022-09-14T03:11:45.535Z,100.00
2022-09-14T03:12:48.011Z,100.00
2022-09-14T03:13:49.669Z,100.00
2022-09-14T03:14:51.581Z,100.00
2022-09-14T03:15:53.567Z,100.00
2022-09-14T03:16:55.352Z,100.00
2022-09-14T03:17:57.096Z,100.00
2022-09-14T03:18:58.776Z,100.00
2022-09-14T03:20:00.738Z,100.00
2022-09-14T03:21:04.926Z,100.00
2022-09-14T03:22:06.855Z,100.00
2022-09-14T03:23:10.828Z,100.00
2022-09-14T03:24:12.533Z,100.00
2022-09-14T03:25:14.821Z,100.00
2022-09-14T03:26:20.452Z,100.00
2022-09-14T03:27:22.250Z,100.00
2022-09-14T03:28:23.908Z,100.00
2022-09-14T03:29:25.585Z,100.00
2022-09-14T03:30:28.035Z,100.00
2022-09-14T03:31:30.021Z,100.00
2022-09-14T03:32:33.016Z,100.00
2022-09-14T03:33:34.779Z,100.00
2022-09-14T03:34:36.737Z,100.00
2022-09-14T03:35:38.704Z,100.00
2022-09-14T03:36:40.434Z,100.00
2022-09-14T03:37:44.293Z,100.00
2022-09-14T03:38:48.724Z,100.00
2022-09-14T03:39:50.378Z,100.00
2022-09-14T03:40:53.178Z,100.00
2022-09-14T03:41:55.262Z,100.00
2022-09-14T03:42:56.991Z,100.00
2022-09-14T03:43:58.645Z,100.00
2022-09-14T03:45:00.468Z,100.00
2022-09-14T03:46:11.130Z,100.00
2022-09-14T03:47:12.846Z,100.00
2022-09-14T03:48:15.809Z,100.00
2022-09-14T03:49:17.498Z,100.00
2022-09-14T03:50:19.881Z,100.00
2022-09-14T03:51:22.454Z,100.00
2022-09-14T03:52:24.199Z,100.00
2022-09-14T03:53:25.874Z,100.00
2022-09-14T03:54:28.202Z,100.00
2022-09-14T03:55:29.861Z,100.00
2022-09-14T03:56:31.639Z,100.00
2022-09-14T03:57:33.828Z,100.00
2022-09-14T03:58:35.548Z,100.00
2022-09-14T03:59:40.531Z,100.00
2022-09-14T04:00:45.209Z,100.00
2022-09-14T04:01:47.939Z,100.00
2022-09-14T04:02:49.965Z,100.00
2022-09-14T04:03:51.683Z,100.00
2022-09-14T04:04:53.776Z,100.00
2022-09-14T04:05:56.520Z,100.00
2022-09-14T04:06:58.197Z,100.00
2022-09-14T04:08:00.009Z,100.00
2022-09-14T04:09:01.953Z,100.00
2022-09-14T04:10:06.194Z,100.00
2022-09-14T04:11:15.353Z,100.00
2022-09-14T04:12:17.523Z,100.00
2022-09-14T04:13:19.341Z,100.00
2022-09-14T04:14:21.100Z,100.00
2022-09-14T04:15:22.764Z,100.00
2022-09-14T04:16:24.514Z,100.00
2022-09-14T04:17:26.269Z,100.00
2022-09-14T04:18:29.071Z,100.00
2022-09-14T04:19:31.242Z,100.00
2022-09-14T04:20:33.025Z,100.00
2022-09-14T04:21:34.769Z,100.00
2022-09-14T04:22:36.576Z,100.00
2022-09-14T04:25:00.027Z,100.00
2022-09-14T04:26:01.730Z,100.00
2022-09-14T04:27:03.503Z,100.00
2022-09-14T04:28:19.763Z,100.00
2022-09-14T04:29:22.372Z,100.00
2022-09-14T04:30:24.099Z,100.00
2022-09-14T04:31:26.512Z,100.00
2022-09-14T04:32:33.521Z,100.00
2022-09-14T04:33:37.425Z,100.00
2022-09-14T04:34:39.138Z,100.00
2022-09-14T04:35:40.734Z,100.00
2022-09-14T04:36:42.403Z,100.00
2022-09-14T04:37:44.477Z,100.00
2022-09-14T04:38:46.758Z,100.00
2022-09-14T04:39:48.531Z,100.00
2022-09-14T04:40:50.306Z,100.00
2022-09-14T04:41:52.275Z,100.00
2022-09-14T04:42:53.920Z,100.00
2022-09-14T04:43:57.156Z,100.00
2022-09-14T04:44:58.829Z,100.00
2022-09-14T04:46:10.497Z,100.00
2022-09-14T04:47:12.194Z,100.00
2022-09-14T04:48:13.882Z,100.00
2022-09-14T04:49:18.833Z,100.00
2022-09-14T04:50:20.578Z,100.00
2022-09-14T04:51:26.773Z,100.00
2022-09-14T04:52:28.463Z,100.00
2022-09-14T04:53:30.730Z,100.00
2022-09-14T04:54:32.753Z,100.00
2022-09-14T04:55:34.538Z,100.00
2022-09-14T04:56:37.130Z,100.00
2022-09-14T04:57:38.839Z,100.00
2022-09-14T04:58:51.201Z,100.00
2022-09-14T04:59:53.246Z,100.00
2022-09-14T05:01:01.026Z,100.00
2022-09-14T05:02:02.824Z,100.00
2022-09-14T05:03:05.286Z,100.00
2022-09-14T05:04:09.191Z,100.00
2022-09-14T05:05:10.937Z,100.00
2022-09-14T05:06:16.026Z,100.00
2022-09-14T05:07:17.632Z,100.00
2022-09-14T05:08:19.328Z,100.00
2022-09-14T05:09:21.633Z,100.00
2022-09-14T05:10:23.944Z,100.00
2022-09-14T05:11:28.651Z,100.00
2022-09-14T05:12:30.499Z,100.00
2022-09-14T05:13:33.461Z,100.00
2022-09-14T05:14:35.157Z,100.00
2022-09-14T05:15:37.214Z,100.00
2022-09-14T05:16:42.172Z,100.00
2022-09-14T05:17:43.849Z,100.00
2022-09-14T05:18:46.781Z,100.00
2022-09-14T05:19:48.499Z,100.00
2022-09-14T05:20:50.167Z,100.00
2022-09-14T05:21:51.921Z,100.00
2022-09-14T05:22:53.580Z,100.00
2022-09-14T05:24:00.763Z,100.00
2022-09-14T05:25:02.466Z,100.00
2022-09-14T05:26:05.966Z,100.00
2022-09-14T05:27:07.806Z,100.00
2022-09-14T05:28:09.502Z,100.00
2022-09-14T05:29:17.134Z,100.00
2022-09-14T05:30:18.773Z,100.00
2022-09-14T05:31:21.719Z,100.00
2022-09-14T05:32:23.426Z,100.00
2022-09-14T05:33:25.355Z,100.00
2022-09-14T05:34:27.062Z,100.00
2022-09-14T05:35:28.697Z,100.00
2022-09-14T05:36:30.388Z,100.00
2022-09-14T05:37:32.071Z,100.00
2022-09-14T05:38:36.565Z,100.00
2022-09-14T05:39:38.675Z,100.00
2022-09-14T05:40:40.525Z,100.00
2022-09-14T05:41:42.447Z,100.00
2022-09-14T05:42:44.221Z,100.00
2022-09-14T05:43:46.198Z,100.00
2022-09-14T05:44:47.968Z,100.00
2022-09-14T05:45:50.772Z,100.00
2022-09-14T05:46:52.642Z,100.00
2022-09-14T05:47:54.369Z,100.00
2022-09-14T05:48:56.286Z,100.00
2022-09-14T05:49:58.248Z,100.00
2022-09-14T05:51:07.388Z,100.00
2022-09-14T05:52:09.122Z,100.00
2022-09-14T05:53:10.759Z,100.00
2022-09-14T05:54:12.453Z,100.00
2022-09-14T05:55:14.638Z,100.00
2022-09-14T05:56:17.561Z,100.00
2022-09-14T05:57:19.836Z,100.00
2022-09-14T05:58:21.681Z,100.00
2022-09-14T05:59:23.308Z,100.00
2022-09-14T06:00:25.636Z,100.00
2022-09-14T06:01:30.295Z,100.00
2022-09-14T06:02:32.218Z,100.00
2022-09-14T06:03:35.011Z,100.00
2022-09-14T06:04:36.706Z,100.00
2022-09-14T06:05:38.667Z,100.00
2022-09-14T06:06:40.460Z,100.00
2022-09-14T06:07:42.266Z,100.00
2022-09-14T06:08:45.029Z,100.00
2022-09-14T06:09:46.684Z,100.00
2022-09-14T06:10:48.528Z,100.00
2022-09-14T06:11:50.282Z,100.00
2022-09-14T06:12:55.391Z,100.00
2022-09-14T06:13:57.569Z,100.00
2022-09-14T06:14:59.257Z,100.00
2022-09-14T06:16:06.825Z,100.00
2022-09-14T06:17:08.480Z,100.00
2022-09-14T06:18:10.133Z,100.00
2022-09-14T06:19:12.440Z,100.00
2022-09-14T06:20:14.378Z,100.00
2022-09-14T06:21:19.290Z,100.00
2022-09-14T06:22:21.218Z,100.00
2022-09-14T06:23:23.376Z,100.00
2022-09-14T06:24:25.122Z,100.00
2022-09-14T06:25:28.150Z,100.00
2022-09-14T06:26:30.078Z,100.00
2022-09-14T06:27:31.746Z,100.00
2022-09-14T06:28:35.161Z,100.00
2022-09-14T06:29:36.817Z,100.00
2022-09-14T06:30:42.838Z,100.00
2022-09-14T06:31:44.461Z,100.00
2022-09-14T06:32:46.134Z,100.00
2022-09-14T06:33:49.329Z,100.00
2022-09-14T06:34:50.981Z,100.00
2022-09-14T06:35:56.510Z,100.00
2022-09-14T06:36:58.435Z,100.00
2022-09-14T06:38:00.042Z,100.00
2022-09-14T06:39:01.643Z,100.00
2022-09-14T06:40:04.531Z,100.00
2022-09-14T06:41:09.179Z,100.00
2022-09-14T06:42:10.838Z,100.00
2022-09-14T06:43:13.844Z,100.00
2022-09-14T06:44:16.169Z,100.00
2022-09-14T06:45:17.775Z,100.00
2022-09-14T06:46:23.620Z,100.00
2022-09-14T06:47:25.320Z,100.00
2022-09-14T06:48:29.854Z,100.00
2022-09-14T06:49:31.619Z,100.00
2022-09-14T06:50:33.267Z,100.00
2022-09-14T06:51:37.616Z,100.00
2022-09-14T06:52:40.134Z,100.00
2022-09-14T06:53:42.361Z,100.00
2022-09-14T06:54:43.959Z,100.00
2022-09-14T06:55:45.866Z,100.00
2022-09-14T06:56:47.710Z,100.00
2022-09-14T06:57:49.515Z,100.00
2022-09-14T06:58:52.200Z,100.00
2022-09-14T06:59:54.106Z,100.00
2022-09-14T07:01:02.546Z,100.00
2022-09-14T07:02:04.446Z,100.00
2022-09-14T07:03:06.574Z,100.00
2022-09-14T07:04:08.966Z,100.00
2022-09-14T07:05:10.901Z,100.00
2022-09-14T07:06:22.019Z,100.00
2022-09-14T07:07:23.757Z,100.00
2022-09-14T07:08:28.478Z,100.00
2022-09-14T07:09:31.740Z,100.00
2022-09-14T07:10:33.721Z,100.00
2022-09-14T07:11:35.830Z,100.00
2022-09-14T07:12:37.442Z,100.00
2022-09-14T07:13:39.624Z,100.00
2022-09-14T07:14:41.606Z,100.00
2022-09-14T07:15:49.314Z,100.00
2022-09-14T07:16:50.957Z,100.00
2022-09-14T07:17:53.694Z,100.00
2022-09-14T07:19:01.981Z,99.96
2022-09-14T07:20:05.597Z,100.00
2022-09-14T07:21:11.731Z,99.99
2022-09-14T07:22:13.345Z,99.38
2022-09-14T07:23:15.178Z,98.96
2022-09-14T07:24:16.876Z,99.51
2022-09-14T07:25:18.686Z,99.29
2022-09-14T07:26:29.592Z,98.36
2022-09-14T07:27:31.237Z,98.10
2022-09-14T07:28:33.959Z,98.16
2022-09-14T07:29:35.566Z,98.00
2022-09-14T07:30:38.735Z,98.02
2022-09-14T07:31:43.902Z,97.36
2022-09-14T07:32:45.598Z,98.00
2022-09-14T07:33:48.565Z,98.22
2022-09-14T07:34:50.228Z,97.99
2022-09-14T07:35:52.910Z,97.88
2022-09-14T07:36:54.535Z,97.95
2022-09-14T07:37:56.219Z,97.50
2022-09-14T07:38:58.167Z,96.83
2022-09-14T07:40:00.206Z,96.19
2022-09-14T07:41:02.246Z,96.09
2022-09-14T07:42:04.070Z,94.98
2022-09-14T07:43:06.461Z,94.51
2022-09-14T07:44:09.406Z,94.69
2022-09-14T07:45:11.162Z,95.13
2022-09-14T07:46:12.818Z,95.24
2022-09-14T07:47:15.077Z,93.51
2022-09-14T07:48:16.835Z,93.46
2022-09-14T07:49:18.535Z,92.19
2022-09-14T07:50:20.567Z,91.11
2022-09-14T07:51:23.836Z,90.64
2022-09-14T07:52:26.080Z,91.03
2022-09-14T07:53:27.826Z,91.12
2022-09-14T07:54:29.451Z,90.87
2022-09-14T07:55:31.222Z,91.51
2022-09-14T07:56:34.904Z,90.03
2022-09-14T07:57:55.227Z,90.64
2022-09-14T07:59:23.834Z,89.45
2022-09-14T08:00:22.016Z,89.47
2022-09-14T08:01:23.816Z,89.59
2022-09-14T08:02:25.566Z,90.09
2022-09-14T08:03:29.239Z,90.28
2022-09-14T08:04:30.847Z,88.86
2022-09-14T08:05:32.457Z,87.60
2022-09-14T08:06:34.656Z,87.61
2022-09-14T08:07:36.338Z,86.69
2022-09-14T08:08:41.880Z,86.19
2022-09-14T08:09:43.434Z,85.41
2022-09-14T08:10:44.989Z,85.41
2022-09-14T08:11:46.575Z,84.37
2022-09-14T08:12:53.197Z,83.87
2022-09-14T08:14:00.520Z,84.28
2022-09-14T08:15:02.115Z,83.89
2022-09-14T08:16:06.037Z,83.84
2022-09-14T08:17:08.018Z,83.63
2022-09-14T08:18:09.750Z,82.40
2022-09-14T08:19:17.706Z,81.36
2022-09-14T08:20:19.992Z,79.33
2022-09-14T08:21:23.262Z,79.12
2022-09-14T08:22:25.530Z,79.67
2022-09-14T08:23:27.293Z,79.22
2022-09-14T08:24:28.859Z,79.02
2022-09-14T08:25:31.317Z,79.52
2022-09-14T08:26:36.643Z,79.24
2022-09-14T08:27:39.314Z,79.05
2022-09-14T08:28:41.966Z,78.26
2022-09-14T08:29:43.579Z,77.93
2022-09-14T08:30:45.135Z,78.30
2022-09-14T08:31:48.581Z,78.36
2022-09-14T08:32:50.154Z,77.90
2022-09-14T08:33:54.884Z,78.02
2022-09-14T08:34:56.417Z,77.72
2022-09-14T08:35:58.477Z,76.13
2022-09-14T08:37:00.162Z,75.51
2022-09-14T08:38:01.775Z,75.29
2022-09-14T08:39:10.150Z,75.21
2022-09-14T08:40:13.984Z,74.99
2022-09-14T08:41:27.535Z,74.99
2022-09-14T08:42:30.625Z,74.94
2022-09-14T08:43:32.950Z,75.04
2022-09-14T08:44:42.948Z,75.47
2022-09-14T08:45:45.793Z,75.05
2022-09-14T08:46:58.824Z,75.14
2022-09-14T08:48:00.838Z,75.91
2022-09-14T08:49:13.998Z,76.08
2022-09-14T08:50:20.810Z,76.55
2022-09-14T08:51:23.350Z,76.56
2022-09-14T08:52:34.327Z,76.54
2022-09-14T08:53:41.518Z,76.13
2022-09-14T08:54:44.189Z,76.43
2022-09-14T08:55:52.090Z,76.25
2022-09-14T08:57:09.522Z,76.36
2022-09-14T08:58:53.258Z,75.72
2022-09-14T09:00:18.633Z,75.58
2022-09-14T09:01:33.246Z,75.11
2022-09-14T09:02:40.666Z,74.73
2022-09-14T09:03:58.066Z,75.20
2022-09-14T09:05:05.388Z,73.83
2022-09-14T09:06:18.309Z,73.18
2022-09-14T09:07:44.314Z,73.54
2022-09-14T09:09:24.123Z,72.83
2022-09-14T09:10:28.351Z,72.47
2022-09-14T09:11:40.547Z,73.27
2022-09-14T09:12:57.108Z,73.56
2022-09-14T09:14:00.502Z,73.68
2022-09-14T09:15:14.901Z,72.85
2022-09-14T09:16:23.159Z,73.35
2022-09-14T09:17:33.852Z,72.92
2022-09-14T09:18:48.065Z,72.39
2022-09-14T09:20:18.842Z,72.26
2022-09-14T09:21:28.996Z,70.99
2022-09-14T09:22:39.573Z,71.15
2022-09-14T09:23:43.098Z,71.04
2022-09-14T09:24:52.632Z,70.84
2022-09-14T09:26:19.340Z,71.07
2022-09-14T09:27:22.598Z,70.73
2022-09-14T09:28:26.426Z,70.58
2022-09-14T09:29:28.586Z,71.42
2022-09-14T09:30:46.970Z,71.31
2022-09-14T09:31:53.061Z,71.31
2022-09-14T09:33:22.724Z,71.49
2022-09-14T09:34:46.154Z,71.26
2022-09-14T09:35:58.325Z,71.34
2022-09-14T09:37:04.485Z,70.75
2022-09-14T09:38:15.877Z,70.90
2022-09-14T09:39:17.978Z,71.22
2022-09-14T09:40:36.597Z,71.05
2022-09-14T09:42:02.066Z,71.31
2022-09-14T09:43:11.386Z,71.76
2022-09-14T09:44:13.411Z,72.44
2022-09-14T09:45:15.153Z,71.63
2022-09-14T09:46:17.999Z,72.05
2022-09-14T09:47:27.295Z,71.66
2022-09-14T09:48:37.876Z,71.50
2022-09-14T09:49:40.002Z,71.65
2022-09-14T09:51:11.001Z,71.49
2022-09-14T09:52:16.766Z,71.39
2022-09-14T09:53:22.437Z,71.41
2022-09-14T09:54:31.125Z,71.26
2022-09-14T09:55:39.454Z,71.17
2022-09-14T09:56:53.040Z,71.63
2022-09-14T09:57:55.011Z,72.76
2022-09-14T09:58:56.663Z,72.12
2022-09-14T10:00:13.812Z,71.62
2022-09-14T10:01:34.649Z,70.96
2022-09-14T10:02:36.456Z,70.87
2022-09-14T10:03:40.595Z,70.43
2022-09-14T10:05:05.706Z,69.97
2022-09-14T10:06:11.486Z,69.22
2022-09-14T10:07:22.592Z,66.79
2022-09-14T10:08:24.522Z,64.91
2022-09-14T10:09:28.629Z,64.39
2022-09-14T10:10:35.923Z,64.15
2022-09-14T10:11:38.556Z,64.27
2022-09-14T10:12:50.787Z,64.32
2022-09-14T10:13:53.225Z,64.36
2022-09-14T10:15:11.668Z,65.21
2022-09-14T10:16:19.848Z,64.47
2022-09-14T10:17:23.675Z,64.71
2022-09-14T10:18:29.135Z,65.19
2022-09-14T10:19:32.957Z,65.40
2022-09-14T10:20:37.151Z,65.39
2022-09-14T10:22:04.664Z,64.94
2022-09-14T10:23:18.158Z,65.22
2022-09-14T10:24:21.061Z,65.99
2022-09-14T10:25:26.187Z,65.77
2022-09-14T10:26:33.556Z,65.85
2022-09-14T10:27:46.181Z,66.61
2022-09-14T10:28:50.388Z,66.18
2022-09-14T10:29:56.507Z,66.62
2022-09-14T10:31:07.288Z,66.65
2022-09-14T10:32:24.130Z,67.18
2022-09-14T10:33:25.978Z,67.35
2022-09-14T10:34:29.066Z,67.28
2022-09-14T10:36:08.986Z,66.80
2022-09-14T10:37:27.940Z,67.01
2022-09-14T10:38:37.012Z,66.71
2022-09-14T10:39:59.194Z,66.83
2022-09-14T10:41:21.898Z,66.51
2022-09-14T10:42:34.933Z,67.21
2022-09-14T10:44:03.217Z,66.28
2022-09-14T10:45:18.117Z,66.42
2022-09-14T10:46:30.986Z,65.36
2022-09-14T10:48:07.652Z,65.90
2022-09-14T10:49:37.919Z,64.72
2022-09-14T10:50:59.802Z,65.11
2022-09-14T10:52:26.464Z,65.42
2022-09-14T10:54:22.077Z,65.69
2022-09-14T10:55:49.766Z,65.44
2022-09-14T10:57:19.484Z,65.03
2022-09-14T10:58:55.801Z,64.50
2022-09-14T11:00:09.811Z,63.16
2022-09-14T11:01:36.084Z,64.35
2022-09-14T11:02:47.669Z,62.54
2022-09-14T11:04:21.071Z,60.30
2022-09-14T11:05:42.447Z,59.97
2022-09-14T11:06:56.913Z,60.09
2022-09-14T11:08:37.248Z,59.01
2022-09-14T11:10:08.507Z,59.84
2022-09-14T11:11:43.448Z,59.47
2022-09-14T11:13:10.500Z,59.00
2022-09-14T11:14:34.189Z,59.09
2022-09-14T11:15:46.857Z,59.68
2022-09-14T11:16:48.437Z,59.54
2022-09-14T11:18:06.656Z,58.61
2022-09-14T11:19:34.286Z,59.30
2022-09-14T11:21:09.033Z,59.40
2022-09-14T11:22:47.378Z,58.43
2022-09-14T11:24:00.322Z,59.70
2022-09-14T11:25:19.046Z,58.73
2022-09-14T11:26:42.503Z,57.81
2022-09-14T11:28:00.754Z,58.30
2022-09-14T11:29:28.910Z,56.57
2022-09-14T11:30:43.009Z,54.96
2022-09-14T11:32:17.012Z,54.09
2022-09-14T11:33:30.888Z,53.27
2022-09-14T11:34:54.810Z,52.98
2022-09-14T11:36:07.143Z,52.69
2022-09-14T11:37:14.493Z,52.64
2022-09-14T11:38:34.974Z,52.68
2022-09-14T11:39:43.323Z,53.41
2022-09-14T11:41:00.453Z,54.13
2022-09-14T11:42:14.426Z,53.78
2022-09-14T11:43:43.582Z,54.10
2022-09-14T11:44:47.060Z,53.67
2022-09-14T11:45:55.139Z,53.28
2022-09-14T11:47:01.599Z,52.29
2022-09-14T11:48:44.310Z,51.69
2022-09-14T11:50:07.093Z,51.91
2022-09-14T11:51:24.567Z,51.48
2022-09-14T11:52:30.334Z,52.20
2022-09-14T11:53:33.582Z,53.59
2022-09-14T11:54:42.429Z,53.56
2022-09-14T11:55:49.942Z,52.88
2022-09-14T11:57:03.669Z,53.37
2022-09-14T11:58:12.302Z,51.57
2022-09-14T11:59:39.217Z,51.75
2022-09-14T12:01:06.996Z,51.93
2022-09-14T12:02:23.877Z,52.58
2022-09-14T12:03:48.546Z,51.02
2022-09-14T12:05:05.770Z,50.76
2022-09-14T12:06:32.255Z,51.23
2022-09-14T12:07:39.920Z,51.02
2022-09-14T12:08:41.734Z,51.97
2022-09-14T12:09:44.572Z,52.07
2022-09-14T12:11:25.014Z,52.17
2022-09-14T12:12:32.983Z,51.75
2022-09-14T12:13:36.075Z,51.79
2022-09-14T12:14:40.608Z,51.48
2022-09-14T12:15:42.956Z,51.12
2022-09-14T12:17:17.662Z,51.15
2022-09-14T12:18:28.791Z,51.17
2022-09-14T12:19:31.458Z,50.17
2022-09-14T12:20:42.769Z,49.84
2022-09-14T12:21:44.516Z,49.26
2022-09-14T12:22:50.018Z,48.06
2022-09-14T12:23:57.944Z,48.57
2022-09-14T12:25:08.770Z,48.62
2022-09-14T12:26:10.435Z,48.26
2022-09-14T12:27:22.981Z,48.20
2022-09-14T12:28:40.010Z,47.87
2022-09-14T12:29:42.093Z,48.73
2022-09-14T12:30:44.660Z,49.71
2022-09-14T12:31:48.876Z,49.25
2022-09-14T12:32:51.077Z,49.32
2022-09-14T12:34:06.066Z,49.50
2022-09-14T12:35:32.565Z,48.89
2022-09-14T12:36:36.863Z,49.52
2022-09-14T12:37:38.458Z,48.39
2022-09-14T12:38:43.150Z,47.89
2022-09-14T12:40:31.418Z,47.47
2022-09-14T12:41:53.308Z,47.51
2022-09-14T12:42:55.189Z,47.45
2022-09-14T12:43:56.844Z,47.30
2022-09-14T12:45:37.253Z,47.11
2022-09-14T12:46:39.960Z,48.49
2022-09-14T12:47:50.913Z,48.85
2022-09-14T12:49:14.561Z,48.87
2022-09-14T12:50:20.717Z,49.77
2022-09-14T12:51:28.947Z,50.81
2022-09-14T12:53:05.893Z,50.95
2022-09-14T12:54:08.150Z,51.22
2022-09-14T12:55:45.065Z,51.82
2022-09-14T12:56:58.801Z,53.28
2022-09-14T12:58:22.953Z,53.72
2022-09-14T12:59:36.756Z,53.99
2022-09-14T13:01:11.170Z,53.76
2022-09-14T13:02:37.471Z,54.09
2022-09-14T13:03:48.665Z,55.08
2022-09-14T13:04:57.113Z,54.19
2022-09-14T13:05:58.911Z,54.50
2022-09-14T13:07:05.929Z,54.92
2022-09-14T13:08:12.874Z,55.00
2022-09-14T13:09:24.959Z,54.95
2022-09-14T13:10:35.757Z,55.55
2022-09-14T13:11:41.174Z,55.00
2022-09-14T13:12:48.693Z,54.29
2022-09-14T13:13:51.300Z,54.95
2022-09-14T13:14:57.960Z,54.96
2022-09-14T13:16:03.374Z,54.58
2022-09-14T13:17:12.138Z,54.53
2022-09-14T13:18:19.445Z,54.61
2022-09-14T13:19:27.517Z,54.32
2022-09-14T13:20:34.718Z,53.63
2022-09-14T13:21:46.648Z,53.94
2022-09-14T13:22:48.355Z,53.90
2022-09-14T13:23:50.869Z,54.10
2022-09-14T13:24:53.874Z,54.24
2022-09-14T13:25:56.482Z,54.44
2022-09-14T13:27:01.949Z,54.24
2022-09-14T13:28:15.529Z,53.51
2022-09-14T13:29:17.639Z,52.70
2022-09-14T13:30:27.237Z,53.09
2022-09-14T13:31:35.529Z,53.36
2022-09-14T13:32:43.040Z,53.95
2022-09-14T13:33:51.409Z,53.47
2022-09-14T13:34:54.826Z,53.39
2022-09-14T13:36:03.367Z,53.08
2022-09-14T13:37:06.385Z,52.61
2022-09-14T13:38:19.920Z,52.20
2022-09-14T13:39:27.168Z,51.43
2022-09-14T13:40:30.758Z,51.53
2022-09-14T13:42:11.568Z,51.49
2022-09-14T13:43:13.474Z,51.23
2022-09-14T13:44:15.649Z,50.98
2022-09-14T13:45:17.597Z,51.47
2022-09-14T13:46:20.798Z,51.92
2022-09-14T13:47:25.058Z,51.77
2022-09-14T13:48:27.370Z,51.91
2022-09-14T13:49:29.849Z,52.26
2022-09-14T13:50:33.963Z,52.37
2022-09-14T13:51:35.749Z,51.82
2022-09-14T13:53:01.215Z,51.73
2022-09-14T13:54:24.529Z,50.35
2022-09-14T13:55:43.682Z,51.06
2022-09-14T13:56:45.451Z,50.62
2022-09-14T13:58:12.139Z,50.19
2022-09-14T13:59:17.494Z,49.80
2022-09-14T14:00:21.555Z,49.87
2022-09-14T14:01:28.953Z,49.78
2022-09-14T14:02:34.620Z,49.89
2022-09-14T14:03:46.843Z,49.72
2022-09-14T14:04:48.713Z,49.92
2022-09-14T14:05:50.518Z,50.24
2022-09-14T14:07:15.277Z,50.47
2022-09-14T14:08:36.314Z,51.48
2022-09-14T14:09:53.753Z,52.31
2022-09-14T14:10:55.944Z,53.08
2022-09-14T14:11:57.618Z,53.89
2022-09-14T14:13:02.489Z,54.19
2022-09-14T14:14:22.359Z,54.95
2022-09-14T14:15:23.929Z,55.38
2022-09-14T14:16:26.660Z,55.17
2022-09-14T14:17:28.333Z,55.56
2022-09-14T14:18:35.802Z,56.31
2022-09-14T14:19:37.644Z,56.80
2022-09-14T14:20:39.572Z,56.98
2022-09-14T14:21:41.206Z,56.47
2022-09-14T14:23:15.012Z,56.89
2022-09-14T14:24:28.217Z,56.02
2022-09-14T14:25:42.053Z,56.16
2022-09-14T14:26:52.307Z,56.61
2022-09-14T14:28:00.584Z,56.77